sensor_id;sensor_type;location;lat;lon;timestamp;P1;durP1;ratioP1;P2;durP2;ratioP2
61104;SDS011;46987;32.638;-115.438;2023-03-23T00:00:02;5.60;;;1.10;;
61104;SDS011;46987;32.638;-115.438;2023-03-23T00:02:38;7.55;;;1.20;;
61104;SDS011;46987;32.638;-115.438;2023-03-23T00:05:05;3.03;;;0.60;;
61104;SDS011;46987;32.638;-115.438;2023-03-23T00:07:33;5.18;;;0.90;;
61104;SDS011;46987;32.638;-115.438;2023-03-23T00:09:59;11.50;;;1.33;;
61104;SDS011;46987;32.638;-115.438;2023-03-23T00:12:29;6.15;;;0.77;;
61104;SDS011;46987;32.638;-115.438;2023-03-23T00:15:02;5.35;;;0.90;;
61104;SDS011;46987;32.638;-115.438;2023-03-23T00:17:29;5.38;;;0.80;;
61104;SDS011;46987;32.638;-115.438;2023-03-23T00:19:58;4.72;;;0.90;;
61104;SDS011;46987;32.638;-115.438;2023-03-23T00:22:27;3.38;;;0.80;;
61104;SDS011;46987;32.638;-115.438;2023-03-23T00:24:54;5.15;;;0.70;;
61104;SDS011;46987;32.638;-115.438;2023-03-23T00:27:22;3.08;;;1.00;;
61104;SDS011;46987;32.638;-115.438;2023-03-23T00:29:49;5.03;;;0.80;;
61104;SDS011;46987;32.638;-115.438;2023-03-23T00:32:19;4.18;;;0.70;;
61104;SDS011;46987;32.638;-115.438;2023-03-23T00:34:46;3.75;;;0.90;;
61104;SDS011;46987;32.638;-115.438;2023-03-23T00:37:17;3.88;;;0.90;;
61104;SDS011;46987;32.638;-115.438;2023-03-23T00:39:43;6.53;;;1.00;;
61104;SDS011;46987;32.638;-115.438;2023-03-23T00:42:12;3.67;;;1.08;;
61104;SDS011;46987;32.638;-115.438;2023-03-23T00:44:39;4.63;;;1.25;;
61104;SDS011;46987;32.638;-115.438;2023-03-23T00:47:06;3.13;;;0.70;;
61104;SDS011;46987;32.638;-115.438;2023-03-23T00:49:34;6.13;;;1.25;;
61104;SDS011;46987;32.638;-115.438;2023-03-23T00:52:01;7.45;;;1.38;;
61104;SDS011;46987;32.638;-115.438;2023-03-23T00:54:30;4.65;;;0.70;;
61104;SDS011;46987;32.638;-115.438;2023-03-23T00:56:56;5.13;;;0.90;;
61104;SDS011;46987;32.638;-115.438;2023-03-23T00:59:23;4.40;;;0.70;;
61104;SDS011;46987;32.638;-115.438;2023-03-23T01:01:50;4.15;;;0.68;;
61104;SDS011;46987;32.638;-115.438;2023-03-23T01:04:17;3.15;;;0.80;;
61104;SDS011;46987;32.638;-115.438;2023-03-23T01:06:44;6.97;;;1.17;;
61104;SDS011;46987;32.638;-115.438;2023-03-23T01:09:12;5.90;;;1.80;;
61104;SDS011;46987;32.638;-115.438;2023-03-23T01:11:44;2.55;;;0.70;;
61104;SDS011;46987;32.638;-115.438;2023-03-23T01:14:11;6.47;;;1.25;;
61104;SDS011;46987;32.638;-115.438;2023-03-23T01:16:38;5.70;;;1.02;;
61104;SDS011;46987;32.638;-115.438;2023-03-23T01:19:05;4.90;;;0.73;;
61104;SDS011;46987;32.638;-115.438;2023-03-23T01:21:31;2.25;;;0.50;;
61104;SDS011;46987;32.638;-115.438;2023-03-23T01:23:58;5.75;;;1.33;;
61104;SDS011;46987;32.638;-115.438;2023-03-23T01:26:25;5.75;;;1.15;;
61104;SDS011;46987;32.638;-115.438;2023-03-23T01:28:54;5.63;;;0.82;;
61104;SDS011;46987;32.638;-115.438;2023-03-23T01:31:21;7.00;;;1.10;;
61104;SDS011;46987;32.638;-115.438;2023-03-23T01:33:48;6.45;;;1.23;;
61104;SDS011;46987;32.638;-115.438;2023-03-23T01:36:19;3.65;;;0.93;;
61104;SDS011;46987;32.638;-115.438;2023-03-23T01:38:47;6.28;;;1.48;;
61104;SDS011;46987;32.638;-115.438;2023-03-23T01:41:14;2.40;;;0.77;;
61104;SDS011;46987;32.638;-115.438;2023-03-23T01:43:55;4.35;;;0.60;;
61104;SDS011;46987;32.638;-115.438;2023-03-23T01:46:25;5.90;;;0.68;;
61104;SDS011;46987;32.638;-115.438;2023-03-23T01:48:52;4.53;;;0.77;;
61104;SDS011;46987;32.638;-115.438;2023-03-23T01:51:20;4.82;;;0.93;;
61104;SDS011;46987;32.638;-115.438;2023-03-23T01:53:52;4.00;;;0.95;;
61104;SDS011;46987;32.638;-115.438;2023-03-23T01:56:20;4.00;;;0.80;;
61104;SDS011;46987;32.638;-115.438;2023-03-23T01:58:51;7.07;;;1.48;;
61104;SDS011;46987;32.638;-115.438;2023-03-23T02:01:21;4.85;;;1.58;;
61104;SDS011;46987;32.638;-115.438;2023-03-23T02:03:52;5.50;;;0.80;;
61104;SDS011;46987;32.638;-115.438;2023-03-23T02:06:19;6.18;;;2.30;;
61104;SDS011;46987;32.638;-115.438;2023-03-23T02:09:08;7.38;;;1.33;;
61104;SDS011;46987;32.638;-115.438;2023-03-23T02:11:35;6.30;;;1.30;;
61104;SDS011;46987;32.638;-115.438;2023-03-23T02:14:02;4.35;;;0.90;;
61104;SDS011;46987;32.638;-115.438;2023-03-23T02:16:34;3.20;;;0.60;;
61104;SDS011;46987;32.638;-115.438;2023-03-23T02:19:11;3.10;;;1.25;;
61104;SDS011;46987;32.638;-115.438;2023-03-23T02:27:14;4.85;;;1.25;;
61104;SDS011;46987;32.638;-115.438;2023-03-23T02:32:24;5.90;;;1.17;;
61104;SDS011;46987;32.638;-115.438;2023-03-23T02:34:55;6.65;;;0.93;;
61104;SDS011;46987;32.638;-115.438;2023-03-23T02:37:23;4.95;;;1.02;;
61104;SDS011;46987;32.638;-115.438;2023-03-23T02:39:51;6.07;;;2.45;;
61104;SDS011;46987;32.638;-115.438;2023-03-23T02:42:20;7.40;;;1.45;;
61104;SDS011;46987;32.638;-115.438;2023-03-23T02:44:52;8.18;;;1.23;;
61104;SDS011;46987;32.638;-115.438;2023-03-23T02:47:21;6.80;;;1.42;;
61104;SDS011;46987;32.638;-115.438;2023-03-23T02:49:49;4.38;;;0.80;;
61104;SDS011;46987;32.638;-115.438;2023-03-23T02:52:21;3.20;;;0.75;;
61104;SDS011;46987;32.638;-115.438;2023-03-23T02:54:50;7.30;;;0.77;;
61104;SDS011;46987;32.638;-115.438;2023-03-23T02:57:17;6.82;;;0.93;;
61104;SDS011;46987;32.638;-115.438;2023-03-23T02:59:45;6.47;;;1.08;;
61104;SDS011;46987;32.638;-115.438;2023-03-23T03:02:13;4.53;;;0.70;;
61104;SDS011;46987;32.638;-115.438;2023-03-23T03:04:40;5.78;;;1.15;;
61104;SDS011;46987;32.638;-115.438;2023-03-23T03:07:21;7.18;;;1.35;;
61104;SDS011;46987;32.638;-115.438;2023-03-23T03:09:50;4.00;;;0.98;;
61104;SDS011;46987;32.638;-115.438;2023-03-23T03:12:21;9.65;;;1.65;;
61104;SDS011;46987;32.638;-115.438;2023-03-23T03:14:51;6.20;;;1.30;;
61104;SDS011;46987;32.638;-115.438;2023-03-23T03:17:23;5.28;;;1.23;;
61104;SDS011;46987;32.638;-115.438;2023-03-23T03:19:50;4.55;;;0.98;;
61104;SDS011;46987;32.638;-115.438;2023-03-23T03:22:20;5.93;;;0.95;;
61104;SDS011;46987;32.638;-115.438;2023-03-23T03:24:48;4.53;;;0.80;;
61104;SDS011;46987;32.638;-115.438;2023-03-23T03:27:17;6.32;;;1.38;;
61104;SDS011;46987;32.638;-115.438;2023-03-23T03:29:48;4.32;;;1.02;;
61104;SDS011;46987;32.638;-115.438;2023-03-23T03:32:19;6.78;;;1.25;;
61104;SDS011;46987;32.638;-115.438;2023-03-23T03:34:48;9.07;;;1.38;;
61104;SDS011;46987;32.638;-115.438;2023-03-23T03:37:18;6.70;;;1.08;;
61104;SDS011;46987;32.638;-115.438;2023-03-23T03:39:50;5.10;;;0.82;;
61104;SDS011;46987;32.638;-115.438;2023-03-23T03:42:18;5.30;;;1.40;;
61104;SDS011;46987;32.638;-115.438;2023-03-23T03:44:45;6.55;;;1.20;;
61104;SDS011;46987;32.638;-115.438;2023-03-23T03:47:12;9.13;;;1.75;;
61104;SDS011;46987;32.638;-115.438;2023-03-23T03:49:39;5.30;;;0.90;;
61104;SDS011;46987;32.638;-115.438;2023-03-23T03:52:06;10.60;;;2.42;;
61104;SDS011;46987;32.638;-115.438;2023-03-23T03:54:38;5.05;;;1.27;;
61104;SDS011;46987;32.638;-115.438;2023-03-23T03:57:08;4.63;;;1.25;;
61104;SDS011;46987;32.638;-115.438;2023-03-23T03:59:53;5.07;;;1.10;;
61104;SDS011;46987;32.638;-115.438;2023-03-23T04:02:22;5.68;;;1.33;;
61104;SDS011;46987;32.638;-115.438;2023-03-23T04:04:51;7.00;;;1.80;;
61104;SDS011;46987;32.638;-115.438;2023-03-23T04:07:20;7.55;;;1.75;;
61104;SDS011;46987;32.638;-115.438;2023-03-23T04:09:48;10.15;;;3.55;;
61104;SDS011;46987;32.638;-115.438;2023-03-23T04:12:21;4.47;;;1.20;;
61104;SDS011;46987;32.638;-115.438;2023-03-23T04:14:56;6.45;;;1.85;;
61104;SDS011;46987;32.638;-115.438;2023-03-23T04:17:29;5.00;;;1.35;;
61104;SDS011;46987;32.638;-115.438;2023-03-23T04:19:56;9.77;;;2.13;;
61104;SDS011;46987;32.638;-115.438;2023-03-23T04:22:25;3.15;;;1.00;;
61104;SDS011;46987;32.638;-115.438;2023-03-23T04:24:57;4.22;;;0.80;;
61104;SDS011;46987;32.638;-115.438;2023-03-23T04:27:26;7.03;;;1.30;;
61104;SDS011;46987;32.638;-115.438;2023-03-23T04:29:57;6.33;;;1.50;;
61104;SDS011;46987;32.638;-115.438;2023-03-23T04:32:43;7.38;;;1.33;;
61104;SDS011;46987;32.638;-115.438;2023-03-23T04:35:14;5.13;;;1.10;;
61104;SDS011;46987;32.638;-115.438;2023-03-23T04:37:46;4.93;;;0.80;;
61104;SDS011;46987;32.638;-115.438;2023-03-23T04:40:16;7.63;;;1.20;;
61104;SDS011;46987;32.638;-115.438;2023-03-23T04:45:38;5.05;;;0.80;;
61104;SDS011;46987;32.638;-115.438;2023-03-23T04:48:08;5.95;;;1.50;;
61104;SDS011;46987;32.638;-115.438;2023-03-23T04:50:44;7.93;;;2.00;;
61104;SDS011;46987;32.638;-115.438;2023-03-23T04:53:21;4.80;;;1.00;;
61104;SDS011;46987;32.638;-115.438;2023-03-23T04:55:48;7.15;;;1.40;;
61104;SDS011;46987;32.638;-115.438;2023-03-23T04:58:17;5.82;;;1.23;;
61104;SDS011;46987;32.638;-115.438;2023-03-23T05:00:55;6.93;;;1.58;;
61104;SDS011;46987;32.638;-115.438;2023-03-23T05:03:23;8.63;;;1.88;;
61104;SDS011;46987;32.638;-115.438;2023-03-23T05:05:53;4.68;;;1.30;;
61104;SDS011;46987;32.638;-115.438;2023-03-23T05:08:21;8.15;;;1.08;;
61104;SDS011;46987;32.638;-115.438;2023-03-23T05:10:51;4.90;;;1.27;;
61104;SDS011;46987;32.638;-115.438;2023-03-23T05:13:20;4.75;;;0.90;;
61104;SDS011;46987;32.638;-115.438;2023-03-23T05:15:50;8.82;;;1.30;;
61104;SDS011;46987;32.638;-115.438;2023-03-23T05:18:19;8.65;;;1.45;;
61104;SDS011;46987;32.638;-115.438;2023-03-23T05:20:49;3.88;;;0.90;;
61104;SDS011;46987;32.638;-115.438;2023-03-23T05:23:21;5.32;;;1.13;;
61104;SDS011;46987;32.638;-115.438;2023-03-23T05:25:56;5.68;;;1.63;;
61104;SDS011;46987;32.638;-115.438;2023-03-23T05:28:27;6.97;;;1.25;;
61104;SDS011;46987;32.638;-115.438;2023-03-23T05:31:17;6.45;;;1.40;;
61104;SDS011;46987;32.638;-115.438;2023-03-23T05:33:46;5.47;;;1.00;;
61104;SDS011;46987;32.638;-115.438;2023-03-23T05:36:35;5.15;;;1.02;;
61104;SDS011;46987;32.638;-115.438;2023-03-23T05:39:10;7.47;;;1.88;;
61104;SDS011;46987;32.638;-115.438;2023-03-23T05:41:55;5.72;;;1.48;;
61104;SDS011;46987;32.638;-115.438;2023-03-23T05:44:26;4.65;;;1.08;;
61104;SDS011;46987;32.638;-115.438;2023-03-23T05:46:56;7.15;;;1.20;;
61104;SDS011;46987;32.638;-115.438;2023-03-23T05:49:24;6.78;;;1.20;;
61104;SDS011;46987;32.638;-115.438;2023-03-23T05:51:53;8.90;;;1.63;;
61104;SDS011;46987;32.638;-115.438;2023-03-23T05:54:20;5.28;;;1.10;;
61104;SDS011;46987;32.638;-115.438;2023-03-23T05:56:48;4.78;;;1.17;;
61104;SDS011;46987;32.638;-115.438;2023-03-23T05:59:35;5.93;;;1.02;;
61104;SDS011;46987;32.638;-115.438;2023-03-23T06:02:06;4.68;;;1.23;;
61104;SDS011;46987;32.638;-115.438;2023-03-23T06:04:35;3.33;;;0.80;;
61104;SDS011;46987;32.638;-115.438;2023-03-23T06:07:14;3.08;;;0.75;;
61104;SDS011;46987;32.638;-115.438;2023-03-23T06:09:51;4.80;;;0.60;;
61104;SDS011;46987;32.638;-115.438;2023-03-23T06:12:21;3.55;;;0.80;;
61104;SDS011;46987;32.638;-115.438;2023-03-23T06:15:11;3.72;;;0.90;;
61104;SDS011;46987;32.638;-115.438;2023-03-23T06:17:57;2.55;;;0.70;;
61104;SDS011;46987;32.638;-115.438;2023-03-23T06:20:31;1.90;;;0.90;;
61104;SDS011;46987;32.638;-115.438;2023-03-23T06:23:04;6.95;;;1.92;;
61104;SDS011;46987;32.638;-115.438;2023-03-23T06:25:34;2.55;;;0.82;;
61104;SDS011;46987;32.638;-115.438;2023-03-23T06:28:00;5.45;;;1.10;;
61104;SDS011;46987;32.638;-115.438;2023-03-23T06:30:28;4.57;;;1.00;;
61104;SDS011;46987;32.638;-115.438;2023-03-23T06:32:57;5.15;;;1.02;;
61104;SDS011;46987;32.638;-115.438;2023-03-23T06:35:46;4.03;;;1.52;;
61104;SDS011;46987;32.638;-115.438;2023-03-23T06:38:25;5.47;;;1.02;;
61104;SDS011;46987;32.638;-115.438;2023-03-23T06:40:54;3.42;;;0.90;;
61104;SDS011;46987;32.638;-115.438;2023-03-23T06:43:24;5.60;;;1.42;;
61104;SDS011;46987;32.638;-115.438;2023-03-23T06:45:58;6.78;;;1.15;;
61104;SDS011;46987;32.638;-115.438;2023-03-23T06:48:41;3.85;;;0.80;;
61104;SDS011;46987;32.638;-115.438;2023-03-23T06:51:12;4.13;;;0.70;;
61104;SDS011;46987;32.638;-115.438;2023-03-23T06:53:42;5.78;;;1.20;;
61104;SDS011;46987;32.638;-115.438;2023-03-23T06:56:12;2.85;;;0.60;;
61104;SDS011;46987;32.638;-115.438;2023-03-23T06:58:41;3.15;;;0.60;;
61104;SDS011;46987;32.638;-115.438;2023-03-23T07:01:12;3.25;;;1.00;;
61104;SDS011;46987;32.638;-115.438;2023-03-23T07:03:44;4.13;;;0.98;;
61104;SDS011;46987;32.638;-115.438;2023-03-23T07:06:16;5.07;;;0.88;;
61104;SDS011;46987;32.638;-115.438;2023-03-23T07:08:49;5.07;;;1.00;;
61104;SDS011;46987;32.638;-115.438;2023-03-23T07:11:20;3.33;;;0.85;;
61104;SDS011;46987;32.638;-115.438;2023-03-23T07:13:47;5.97;;;1.10;;
61104;SDS011;46987;32.638;-115.438;2023-03-23T07:16:17;7.53;;;0.77;;
61104;SDS011;46987;32.638;-115.438;2023-03-23T07:18:44;8.48;;;1.42;;
61104;SDS011;46987;32.638;-115.438;2023-03-23T07:21:11;2.90;;;0.60;;
61104;SDS011;46987;32.638;-115.438;2023-03-23T07:23:41;4.30;;;0.80;;
61104;SDS011;46987;32.638;-115.438;2023-03-23T07:26:16;3.85;;;0.68;;
61104;SDS011;46987;32.638;-115.438;2023-03-23T07:28:49;4.80;;;1.00;;
61104;SDS011;46987;32.638;-115.438;2023-03-23T07:31:38;4.10;;;0.65;;
61104;SDS011;46987;32.638;-115.438;2023-03-23T07:34:06;4.03;;;1.00;;
61104;SDS011;46987;32.638;-115.438;2023-03-23T07:36:56;4.28;;;0.60;;
61104;SDS011;46987;32.638;-115.438;2023-03-23T07:39:26;3.80;;;0.60;;
61104;SDS011;46987;32.638;-115.438;2023-03-23T07:41:56;5.03;;;1.00;;
61104;SDS011;46987;32.638;-115.438;2023-03-23T07:44:35;4.15;;;0.73;;
61104;SDS011;46987;32.638;-115.438;2023-03-23T07:47:07;2.65;;;0.70;;
61104;SDS011;46987;32.638;-115.438;2023-03-23T07:49:35;4.20;;;0.73;;
61104;SDS011;46987;32.638;-115.438;2023-03-23T07:52:15;3.50;;;0.47;;
61104;SDS011;46987;32.638;-115.438;2023-03-23T07:54:43;3.30;;;0.77;;
61104;SDS011;46987;32.638;-115.438;2023-03-23T07:57:34;4.50;;;1.25;;
61104;SDS011;46987;32.638;-115.438;2023-03-23T08:00:02;4.20;;;1.08;;
61104;SDS011;46987;32.638;-115.438;2023-03-23T08:02:45;2.90;;;0.88;;
61104;SDS011;46987;32.638;-115.438;2023-03-23T08:05:32;3.75;;;0.70;;
61104;SDS011;46987;32.638;-115.438;2023-03-23T08:08:18;2.92;;;0.90;;
61104;SDS011;46987;32.638;-115.438;2023-03-23T08:11:06;1.85;;;0.63;;
61104;SDS011;46987;32.638;-115.438;2023-03-23T08:13:54;3.40;;;0.98;;
61104;SDS011;46987;32.638;-115.438;2023-03-23T08:19:43;3.67;;;1.10;;
61104;SDS011;46987;32.638;-115.438;2023-03-23T08:22:40;3.80;;;0.95;;
61104;SDS011;46987;32.638;-115.438;2023-03-23T08:25:26;5.03;;;0.95;;
61104;SDS011;46987;32.638;-115.438;2023-03-23T08:28:22;5.07;;;1.00;;
61104;SDS011;46987;32.638;-115.438;2023-03-23T08:31:07;3.00;;;0.80;;
61104;SDS011;46987;32.638;-115.438;2023-03-23T08:33:53;3.20;;;0.85;;
61104;SDS011;46987;32.638;-115.438;2023-03-23T08:36:45;3.95;;;0.70;;
61104;SDS011;46987;32.638;-115.438;2023-03-23T08:39:44;3.83;;;0.80;;
61104;SDS011;46987;32.638;-115.438;2023-03-23T08:42:34;0.60;;;0.30;;
61104;SDS011;46987;32.638;-115.438;2023-03-23T08:45:23;3.78;;;0.70;;
61104;SDS011;46987;32.638;-115.438;2023-03-23T08:48:05;3.00;;;0.80;;
61104;SDS011;46987;32.638;-115.438;2023-03-23T08:50:50;2.03;;;0.70;;
61104;SDS011;46987;32.638;-115.438;2023-03-23T08:53:36;1.95;;;0.60;;
61104;SDS011;46987;32.638;-115.438;2023-03-23T08:56:25;1.23;;;0.40;;
61104;SDS011;46987;32.638;-115.438;2023-03-23T08:59:07;0.93;;;0.40;;
61104;SDS011;46987;32.638;-115.438;2023-03-23T09:01:46;1.80;;;0.57;;
61104;SDS011;46987;32.638;-115.438;2023-03-23T09:04:19;0.38;;;0.25;;
61104;SDS011;46987;32.638;-115.438;2023-03-23T09:07:09;1.13;;;0.40;;
61104;SDS011;46987;32.638;-115.438;2023-03-23T09:09:37;0.55;;;0.30;;
61104;SDS011;46987;32.638;-115.438;2023-03-23T09:12:05;2.33;;;0.60;;
61104;SDS011;46987;32.638;-115.438;2023-03-23T09:14:32;2.83;;;0.60;;
61104;SDS011;46987;32.638;-115.438;2023-03-23T09:17:00;4.05;;;1.05;;
61104;SDS011;46987;32.638;-115.438;2023-03-23T09:19:27;1.77;;;0.60;;
61104;SDS011;46987;32.638;-115.438;2023-03-23T09:21:53;3.05;;;0.50;;
61104;SDS011;46987;32.638;-115.438;2023-03-23T09:24:20;2.42;;;0.73;;
61104;SDS011;46987;32.638;-115.438;2023-03-23T09:26:47;2.28;;;0.80;;
61104;SDS011;46987;32.638;-115.438;2023-03-23T09:29:13;1.08;;;0.50;;
61104;SDS011;46987;32.638;-115.438;2023-03-23T09:31:40;1.85;;;0.70;;
61104;SDS011;46987;32.638;-115.438;2023-03-23T09:34:09;3.58;;;0.60;;
61104;SDS011;46987;32.638;-115.438;2023-03-23T09:36:38;3.75;;;0.80;;
61104;SDS011;46987;32.638;-115.438;2023-03-23T09:39:05;2.08;;;0.82;;
61104;SDS011;46987;32.638;-115.438;2023-03-23T09:41:38;1.85;;;0.60;;
61104;SDS011;46987;32.638;-115.438;2023-03-23T09:44:10;1.60;;;0.40;;
61104;SDS011;46987;32.638;-115.438;2023-03-23T09:46:44;0.77;;;0.40;;
61104;SDS011;46987;32.638;-115.438;2023-03-23T09:49:16;1.13;;;0.40;;
61104;SDS011;46987;32.638;-115.438;2023-03-23T09:51:44;1.88;;;0.40;;
61104;SDS011;46987;32.638;-115.438;2023-03-23T09:54:12;1.13;;;0.35;;
61104;SDS011;46987;32.638;-115.438;2023-03-23T09:56:41;2.38;;;0.82;;
61104;SDS011;46987;32.638;-115.438;2023-03-23T09:59:12;0.93;;;0.30;;
61104;SDS011;46987;32.638;-115.438;2023-03-23T10:01:40;1.65;;;0.43;;
61104;SDS011;46987;32.638;-115.438;2023-03-23T10:04:10;1.60;;;0.50;;
61104;SDS011;46987;32.638;-115.438;2023-03-23T10:06:40;3.05;;;0.55;;
61104;SDS011;46987;32.638;-115.438;2023-03-23T10:09:08;1.15;;;0.50;;
61104;SDS011;46987;32.638;-115.438;2023-03-23T10:11:42;1.50;;;0.50;;
61104;SDS011;46987;32.638;-115.438;2023-03-23T10:14:15;3.85;;;0.60;;
61104;SDS011;46987;32.638;-115.438;2023-03-23T10:16:46;2.92;;;0.80;;
61104;SDS011;46987;32.638;-115.438;2023-03-23T10:19:17;2.03;;;0.50;;
61104;SDS011;46987;32.638;-115.438;2023-03-23T10:21:49;1.52;;;0.50;;
61104;SDS011;46987;32.638;-115.438;2023-03-23T10:24:19;2.15;;;0.50;;
61104;SDS011;46987;32.638;-115.438;2023-03-23T10:26:48;4.00;;;1.05;;
61104;SDS011;46987;32.638;-115.438;2023-03-23T10:29:18;1.73;;;0.73;;
61104;SDS011;46987;32.638;-115.438;2023-03-23T10:31:46;2.20;;;0.60;;
61104;SDS011;46987;32.638;-115.438;2023-03-23T10:34:15;2.13;;;0.70;;
61104;SDS011;46987;32.638;-115.438;2023-03-23T10:36:50;2.72;;;0.80;;
61104;SDS011;46987;32.638;-115.438;2023-03-23T10:39:19;1.40;;;0.45;;
61104;SDS011;46987;32.638;-115.438;2023-03-23T10:41:46;1.77;;;0.60;;
61104;SDS011;46987;32.638;-115.438;2023-03-23T10:44:14;1.42;;;0.50;;
61104;SDS011;46987;32.638;-115.438;2023-03-23T10:46:43;2.45;;;0.50;;
61104;SDS011;46987;32.638;-115.438;2023-03-23T10:49:15;1.25;;;0.50;;
61104;SDS011;46987;32.638;-115.438;2023-03-23T10:51:44;1.55;;;0.40;;
61104;SDS011;46987;32.638;-115.438;2023-03-23T10:54:24;1.13;;;0.40;;
61104;SDS011;46987;32.638;-115.438;2023-03-23T10:56:53;1.67;;;0.30;;
61104;SDS011;46987;32.638;-115.438;2023-03-23T10:59:20;3.08;;;0.68;;
61104;SDS011;46987;32.638;-115.438;2023-03-23T11:01:48;0.80;;;0.40;;
61104;SDS011;46987;32.638;-115.438;2023-03-23T11:04:16;4.20;;;0.50;;
61104;SDS011;46987;32.638;-115.438;2023-03-23T11:06:44;3.15;;;0.40;;
61104;SDS011;46987;32.638;-115.438;2023-03-23T11:09:13;1.23;;;0.38;;
61104;SDS011;46987;32.638;-115.438;2023-03-23T11:11:40;1.65;;;0.70;;
61104;SDS011;46987;32.638;-115.438;2023-03-23T11:14:17;1.88;;;0.47;;
61104;SDS011;46987;32.638;-115.438;2023-03-23T11:16:45;4.93;;;0.77;;
61104;SDS011;46987;32.638;-115.438;2023-03-23T11:19:13;3.00;;;0.68;;
61104;SDS011;46987;32.638;-115.438;2023-03-23T11:21:40;4.53;;;0.80;;
61104;SDS011;46987;32.638;-115.438;2023-03-23T11:24:12;2.60;;;0.60;;
61104;SDS011;46987;32.638;-115.438;2023-03-23T11:26:38;5.20;;;1.00;;
61104;SDS011;46987;32.638;-115.438;2023-03-23T11:29:08;2.60;;;0.80;;
61104;SDS011;46987;32.638;-115.438;2023-03-23T11:31:38;2.42;;;0.65;;
61104;SDS011;46987;32.638;-115.438;2023-03-23T11:34:09;4.05;;;0.75;;
61104;SDS011;46987;32.638;-115.438;2023-03-23T11:36:36;3.28;;;0.70;;
61104;SDS011;46987;32.638;-115.438;2023-03-23T11:39:16;3.58;;;0.80;;
61104;SDS011;46987;32.638;-115.438;2023-03-23T11:41:45;3.00;;;0.73;;
61104;SDS011;46987;32.638;-115.438;2023-03-23T11:44:11;2.85;;;0.70;;
61104;SDS011;46987;32.638;-115.438;2023-03-23T11:46:53;2.85;;;0.80;;
61104;SDS011;46987;32.638;-115.438;2023-03-23T11:49:25;5.15;;;1.00;;
61104;SDS011;46987;32.638;-115.438;2023-03-23T11:51:54;2.42;;;1.00;;
61104;SDS011;46987;32.638;-115.438;2023-03-23T11:54:24;3.15;;;0.70;;
61104;SDS011;46987;32.638;-115.438;2023-03-23T11:56:54;3.88;;;1.08;;
61104;SDS011;46987;32.638;-115.438;2023-03-23T11:59:26;3.95;;;1.42;;
61104;SDS011;46987;32.638;-115.438;2023-03-23T12:01:56;4.95;;;1.10;;
61104;SDS011;46987;32.638;-115.438;2023-03-23T12:04:38;7.28;;;1.02;;
61104;SDS011;46987;32.638;-115.438;2023-03-23T12:07:11;4.22;;;1.00;;
61104;SDS011;46987;32.638;-115.438;2023-03-23T12:09:42;4.70;;;1.10;;
61104;SDS011;46987;32.638;-115.438;2023-03-23T12:12:11;4.43;;;1.25;;
61104;SDS011;46987;32.638;-115.438;2023-03-23T12:14:41;4.72;;;0.90;;
61104;SDS011;46987;32.638;-115.438;2023-03-23T12:17:17;5.28;;;1.27;;
61104;SDS011;46987;32.638;-115.438;2023-03-23T12:19:47;4.35;;;1.00;;
61104;SDS011;46987;32.638;-115.438;2023-03-23T12:22:22;5.73;;;1.33;;
61104;SDS011;46987;32.638;-115.438;2023-03-23T12:24:54;5.25;;;1.15;;
61104;SDS011;46987;32.638;-115.438;2023-03-23T12:27:27;4.30;;;0.98;;
61104;SDS011;46987;32.638;-115.438;2023-03-23T12:32:46;4.10;;;1.05;;
61104;SDS011;46987;32.638;-115.438;2023-03-23T12:37:45;3.78;;;1.10;;
61104;SDS011;46987;32.638;-115.438;2023-03-23T12:40:20;3.30;;;1.30;;
61104;SDS011;46987;32.638;-115.438;2023-03-23T12:42:52;6.25;;;1.83;;
61104;SDS011;46987;32.638;-115.438;2023-03-23T12:45:23;4.65;;;1.40;;
61104;SDS011;46987;32.638;-115.438;2023-03-23T12:47:53;4.20;;;1.40;;
61104;SDS011;46987;32.638;-115.438;2023-03-23T12:50:24;5.27;;;1.10;;
61104;SDS011;46987;32.638;-115.438;2023-03-23T12:52:55;3.30;;;1.10;;
61104;SDS011;46987;32.638;-115.438;2023-03-23T12:55:25;3.83;;;1.30;;
61104;SDS011;46987;32.638;-115.438;2023-03-23T12:57:54;4.03;;;1.33;;
61104;SDS011;46987;32.638;-115.438;2023-03-23T13:00:25;3.50;;;1.02;;
61104;SDS011;46987;32.638;-115.438;2023-03-23T13:02:56;4.72;;;1.20;;
61104;SDS011;46987;32.638;-115.438;2023-03-23T13:05:27;6.15;;;1.63;;
61104;SDS011;46987;32.638;-115.438;2023-03-23T13:07:56;6.80;;;1.20;;
61104;SDS011;46987;32.638;-115.438;2023-03-23T13:10:27;3.80;;;1.13;;
61104;SDS011;46987;32.638;-115.438;2023-03-23T13:12:54;5.80;;;1.20;;
61104;SDS011;46987;32.638;-115.438;2023-03-23T13:15:27;4.88;;;1.00;;
61104;SDS011;46987;32.638;-115.438;2023-03-23T13:17:58;6.55;;;1.17;;
61104;SDS011;46987;32.638;-115.438;2023-03-23T13:23:15;7.45;;;1.23;;
61104;SDS011;46987;32.638;-115.438;2023-03-23T13:25:48;5.43;;;1.13;;
61104;SDS011;46987;32.638;-115.438;2023-03-23T13:28:16;8.25;;;1.50;;
61104;SDS011;46987;32.638;-115.438;2023-03-23T13:30:59;6.38;;;1.42;;
61104;SDS011;46987;32.638;-115.438;2023-03-23T13:33:28;4.80;;;1.17;;
61104;SDS011;46987;32.638;-115.438;2023-03-23T13:35:55;3.50;;;1.20;;
61104;SDS011;46987;32.638;-115.438;2023-03-23T13:38:23;5.07;;;1.67;;
61104;SDS011;46987;32.638;-115.438;2023-03-23T13:40:51;7.60;;;1.27;;
61104;SDS011;46987;32.638;-115.438;2023-03-23T13:43:25;7.30;;;1.55;;
61104;SDS011;46987;32.638;-115.438;2023-03-23T13:45:52;5.57;;;1.70;;
61104;SDS011;46987;32.638;-115.438;2023-03-23T13:48:22;6.60;;;1.85;;
61104;SDS011;46987;32.638;-115.438;2023-03-23T13:50:52;8.13;;;2.05;;
61104;SDS011;46987;32.638;-115.438;2023-03-23T13:53:23;10.00;;;2.38;;
61104;SDS011;46987;32.638;-115.438;2023-03-23T13:55:52;8.35;;;1.58;;
61104;SDS011;46987;32.638;-115.438;2023-03-23T13:58:29;6.35;;;1.90;;
61104;SDS011;46987;32.638;-115.438;2023-03-23T14:01:11;6.75;;;1.65;;
61104;SDS011;46987;32.638;-115.438;2023-03-23T14:03:39;6.80;;;2.38;;
61104;SDS011;46987;32.638;-115.438;2023-03-23T14:06:10;6.53;;;2.08;;
61104;SDS011;46987;32.638;-115.438;2023-03-23T14:09:03;9.15;;;2.10;;
61104;SDS011;46987;32.638;-115.438;2023-03-23T14:11:31;9.35;;;1.92;;
61104;SDS011;46987;32.638;-115.438;2023-03-23T14:14:02;8.70;;;1.65;;
61104;SDS011;46987;32.638;-115.438;2023-03-23T14:16:36;6.47;;;1.60;;
61104;SDS011;46987;32.638;-115.438;2023-03-23T14:19:03;5.38;;;1.55;;
61104;SDS011;46987;32.638;-115.438;2023-03-23T14:21:34;9.80;;;1.85;;
61104;SDS011;46987;32.638;-115.438;2023-03-23T14:24:01;9.07;;;2.65;;
61104;SDS011;46987;32.638;-115.438;2023-03-23T14:26:28;6.50;;;2.33;;
61104;SDS011;46987;32.638;-115.438;2023-03-23T14:28:54;9.80;;;1.98;;
61104;SDS011;46987;32.638;-115.438;2023-03-23T14:31:21;10.43;;;2.50;;
61104;SDS011;46987;32.638;-115.438;2023-03-23T14:33:49;8.63;;;2.30;;
61104;SDS011;46987;32.638;-115.438;2023-03-23T14:36:19;9.75;;;2.13;;
61104;SDS011;46987;32.638;-115.438;2023-03-23T14:38:54;12.95;;;2.90;;
61104;SDS011;46987;32.638;-115.438;2023-03-23T14:41:21;5.50;;;1.58;;
61104;SDS011;46987;32.638;-115.438;2023-03-23T14:43:48;10.23;;;2.13;;
61104;SDS011;46987;32.638;-115.438;2023-03-23T14:46:15;9.30;;;2.20;;
61104;SDS011;46987;32.638;-115.438;2023-03-23T14:48:42;6.30;;;2.35;;
61104;SDS011;46987;32.638;-115.438;2023-03-23T14:51:17;7.47;;;2.05;;
61104;SDS011;46987;32.638;-115.438;2023-03-23T14:53:44;9.23;;;2.10;;
61104;SDS011;46987;32.638;-115.438;2023-03-23T14:56:12;9.80;;;2.58;;